Time;durP1;ratioP1;P1;durP2;ratioP2;P2;SDS_P1;SDS_P2;PMS_P1;PMS_P2;Temp;Humidity;BMP_temperature;BMP_pressure;BME280_temperature;BME280_humidity;BME280_pressure;Samples;Min_cycle;Max_cycle;Signal;HPM_P1;HPM_P2
2022/07/16 00:03:17;;;;;;;9.43;5.90;;;9.30;99.90;;;;;;5091449;27;20510;-70
2022/07/16 00:05:44;;;;;;;8.52;6.35;;;9.30;99.90;;;;;;5157450;27;20023;-70
2022/07/16 00:08:11;;;;;;;12.32;6.00;;;9.30;99.90;;;;;;5062656;27;20033;-77
2022/07/16 00:10:37;;;;;;;8.80;5.10;;;9.20;99.90;;;;;;5051906;28;20190;-70
2022/07/16 00:13:03;;;;;;;9.57;5.75;;;9.20;99.90;;;;;;5052246;28;20442;-77
2022/07/16 00:15:30;;;;;;;8.23;5.82;;;9.10;99.90;;;;;;5050737;28;20025;-70
2022/07/16 00:20:41;;;;;;;5.35;4.85;;;9.00;99.90;;;;;;5051733;28;20074;-70
2022/07/16 00:23:07;;;;;;;7.95;5.10;;;9.00;99.90;;;;;;5052026;28;20390;-78
2022/07/16 00:25:34;;;;;;;9.07;5.25;;;9.00;99.90;;;;;;5051821;28;20028;-70
2022/07/16 00:28:00;;;;;;;6.60;5.78;;;8.90;99.90;;;;;;5050612;28;20490;-78
2022/07/16 00:30:26;;;;;;;5.70;5.05;;;8.90;99.90;;;;;;5051709;28;20025;-78
2022/07/16 00:32:52;;;;;;;7.72;5.53;;;8.90;99.90;;;;;;5051818;28;20032;-70
2022/07/16 00:35:18;;;;;;;5.55;5.03;;;8.80;99.90;;;;;;5050373;28;20025;-77
2022/07/16 00:37:44;;;;;;;7.68;5.25;;;8.80;99.90;;;;;;5051733;28;20037;-70
2022/07/16 00:40:10;;;;;;;8.18;5.85;;;8.80;99.90;;;;;;5051630;28;20427;-77
2022/07/16 00:42:35;;;;;;;8.10;6.10;;;8.80;99.90;;;;;;5051680;28;20117;-78
2022/07/16 00:45:01;;;;;;;8.18;5.35;;;8.80;99.90;;;;;;5051661;28;20021;-77
2022/07/16 00:47:26;;;;;;;7.10;5.30;;;8.70;99.90;;;;;;5050282;28;20025;-78
2022/07/16 00:49:52;;;;;;;8.00;6.15;;;8.70;99.90;;;;;;5051151;28;20021;-70
2022/07/16 00:52:18;;;;;;;8.70;5.63;;;8.70;99.90;;;;;;5051540;28;20508;-78
2022/07/16 00:54:43;;;;;;;10.77;5.43;;;8.70;99.90;;;;;;5051385;28;20024;-78
2022/07/16 00:57:09;;;;;;;8.52;5.90;;;8.70;99.90;;;;;;5050045;28;20032;-76
2022/07/16 00:59:35;;;;;;;6.05;5.05;;;8.60;99.90;;;;;;5051324;28;20029;-71
2022/07/16 01:02:01;;;;;;;7.22;5.57;;;8.60;99.90;;;;;;5051904;28;20429;-78
2022/07/16 01:04:27;;;;;;;7.93;6.40;;;8.50;99.90;;;;;;5050399;28;20116;-78
2022/07/16 01:06:53;;;;;;;6.65;5.28;;;8.50;99.90;;;;;;5051299;28;20040;-72
2022/07/16 01:09:20;;;;;;;7.45;5.25;;;8.50;99.90;;;;;;5049748;28;20470;-70
2022/07/16 01:11:47;;;;;;;8.43;5.43;;;8.50;99.90;;;;;;5049963;28;20028;-78
2022/07/16 01:14:15;;;;;;;8.18;6.00;;;8.40;99.90;;;;;;5051127;28;20024;-70
2022/07/16 01:16:41;;;;;;;7.05;5.50;;;8.40;99.90;;;;;;5051177;28;20029;-77
2022/07/16 01:19:09;;;;;;;6.93;5.00;;;8.40;99.90;;;;;;5051051;28;20037;-70
2022/07/16 01:21:34;;;;;;;7.78;5.55;;;8.30;99.90;;;;;;5050973;28;20033;-78
2022/07/16 01:24:00;;;;;;;7.40;6.05;;;8.30;99.90;;;;;;5049725;28;20131;-71
2022/07/16 01:26:26;;;;;;;5.22;4.68;;;8.30;99.90;;;;;;5049726;28;20025;-78
2022/07/16 01:28:51;;;;;;;9.20;5.38;;;8.20;99.90;;;;;;5050748;28;20158;-71
2022/07/16 01:31:17;;;;;;;5.97;5.00;;;8.20;99.90;;;;;;5050507;28;20040;-70
2022/07/16 01:33:43;;;;;;;6.60;5.07;;;8.20;99.90;;;;;;5049339;28;20033;-77
2022/07/16 01:36:09;;;;;;;7.00;5.57;;;8.20;99.90;;;;;;5050905;28;20096;-70
2022/07/16 01:38:39;;;;;;;8.23;5.35;;;8.20;99.90;;;;;;5049470;28;20067;-71
2022/07/16 01:41:05;;;;;;;7.65;5.40;;;8.10;99.90;;;;;;5050614;28;20021;-78
2022/07/16 01:43:31;;;;;;;9.15;5.38;;;8.20;99.90;;;;;;5050790;28;20028;-71
2022/07/16 01:45:58;;;;;;;7.45;5.35;;;8.20;99.90;;;;;;5050828;28;20096;-78
2022/07/16 01:48:25;;;;;;;7.68;5.38;;;8.10;99.90;;;;;;5051071;28;20028;-70
2022/07/16 01:50:52;;;;;;;6.55;5.07;;;8.10;99.90;;;;;;5049213;28;20074;-77
2022/07/16 01:53:18;;;;;;;6.93;4.90;;;8.10;99.90;;;;;;5050720;28;20036;-71
2022/07/16 01:55:44;;;;;;;5.65;5.05;;;8.10;99.90;;;;;;5049109;28;20387;-71
2022/07/16 01:58:12;;;;;;;7.70;4.85;;;8.10;99.90;;;;;;5050396;28;20036;-77
2022/07/16 02:00:41;;;;;;;4.95;4.55;;;8.00;99.90;;;;;;5048265;28;20115;-77
2022/07/16 02:03:07;;;;;;;4.72;4.20;;;7.90;99.90;;;;;;5050471;28;20024;-78
2022/07/16 02:05:35;;;;;;;4.78;4.25;;;7.80;99.90;;;;;;5050365;28;20474;-70
2022/07/16 02:08:02;;;;;;;4.53;4.13;;;7.90;99.90;;;;;;5049470;28;20055;-71
2022/07/16 02:10:28;;;;;;;5.05;4.55;;;7.80;99.90;;;;;;5050356;28;20025;-71
2022/07/16 02:12:53;;;;;;;5.07;4.68;;;7.80;99.90;;;;;;5049151;28;20028;-78
2022/07/16 02:15:19;;;;;;;4.80;4.40;;;7.80;99.90;;;;;;5050176;28;20035;-77
2022/07/16 02:17:45;;;;;;;6.43;5.00;;;7.80;99.90;;;;;;5049065;28;20037;-70
2022/07/16 02:20:11;;;;;;;5.30;4.35;;;7.70;99.90;;;;;;5050414;28;20021;-70
2022/07/16 02:22:38;;;;;;;7.97;4.85;;;7.70;99.90;;;;;;5050239;28;20021;-70
2022/07/16 02:25:05;;;;;;;6.50;4.50;;;7.70;99.90;;;;;;5050214;28;20140;-71
2022/07/16 02:27:31;;;;;;;4.22;3.90;;;7.70;99.90;;;;;;5050027;28;20021;-70
2022/07/16 02:29:58;;;;;;;5.47;4.68;;;7.60;99.90;;;;;;5050248;28;20393;-71
2022/07/16 02:32:24;;;;;;;5.63;5.10;;;7.60;99.90;;;;;;5048780;28;20478;-75
2022/07/16 02:34:49;;;;;;;6.60;5.13;;;7.60;99.90;;;;;;5049974;28;20025;-77
2022/07/16 02:37:15;;;;;;;5.57;4.45;;;7.60;99.90;;;;;;5049930;28;20029;-78
2022/07/16 02:39:41;;;;;;;6.88;4.93;;;7.50;99.90;;;;;;5050021;28;20439;-72
2022/07/16 02:42:06;;;;;;;7.50;4.40;;;7.50;99.90;;;;;;5049867;28;20062;-78
2022/07/16 02:44:32;;;;;;;5.05;4.55;;;7.60;99.90;;;;;;5049980;28;20021;-77
2022/07/16 02:46:58;;;;;;;4.88;4.47;;;7.40;99.90;;;;;;5048569;28;20052;-72
2022/07/16 02:49:23;;;;;;;5.55;3.90;;;7.40;99.90;;;;;;5049303;28;20025;-77
2022/07/16 02:51:49;;;;;;;4.40;4.00;;;7.40;99.90;;;;;;5050304;28;20541;-78
2022/07/16 02:54:15;;;;;;;3.83;3.30;;;7.40;99.90;;;;;;5050592;28;20040;-71
2022/07/16 02:56:41;;;;;;;7.57;4.43;;;7.30;99.90;;;;;;5048808;28;20017;-77
2022/07/16 02:59:06;;;;;;;4.68;4.20;;;7.30;99.90;;;;;;5048625;28;20485;-71
2022/07/16 03:01:32;;;;;;;4.97;4.13;;;7.40;99.90;;;;;;5049819;28;20241;-70
2022/07/16 03:03:58;;;;;;;4.45;4.05;;;7.40;99.90;;;;;;5050015;28;20112;-72
2022/07/16 03:06:23;;;;;;;3.95;3.65;;;7.40;99.90;;;;;;5048326;28;20117;-71
2022/07/16 03:08:50;;;;;;;7.63;4.07;;;7.30;99.90;;;;;;5049720;28;20391;-77
2022/07/16 03:11:16;;;;;;;7.38;4.43;;;7.20;99.90;;;;;;5050581;28;20021;-70
2022/07/16 03:13:42;;;;;;;7.18;4.50;;;7.30;99.90;;;;;;5053277;28;20025;-77
2022/07/16 03:16:08;;;;;;;5.35;4.20;;;7.20;99.90;;;;;;5051932;28;20040;-70
2022/07/16 03:18:34;;;;;;;4.72;3.75;;;7.30;99.90;;;;;;5052952;28;20036;-77
2022/07/16 03:20:59;;;;;;;5.25;4.75;;;7.40;99.90;;;;;;5051760;28;20116;-78
2022/07/16 03:23:25;;;;;;;6.82;4.13;;;7.40;99.90;;;;;;5053021;28;20022;-77
2022/07/16 03:25:51;;;;;;;4.57;3.95;;;7.50;99.90;;;;;;5053301;28;20096;-76
2022/07/16 03:28:17;;;;;;;7.13;4.70;;;7.50;99.90;;;;;;5054166;28;20028;-71
2022/07/16 03:30:42;;;;;;;5.35;4.68;;;7.50;99.90;;;;;;5053409;28;20463;-71
2022/07/16 03:33:08;;;;;;;4.88;4.47;;;7.50;99.90;;;;;;5053163;28;20125;-71
2022/07/16 03:35:34;;;;;;;4.85;4.40;;;7.50;99.90;;;;;;5051858;28;20493;-78
2022/07/16 03:40:44;;;;;;;3.42;3.17;;;7.50;99.90;;;;;;5052681;28;20031;-70
2022/07/16 03:43:09;;;;;;;6.55;3.58;;;7.50;99.90;;;;;;5051324;28;20021;-77
2022/07/16 03:45:35;;;;;;;5.05;3.58;;;7.50;99.90;;;;;;5052705;28;20109;-71
2022/07/16 03:48:01;;;;;;;5.13;3.38;;;7.60;99.90;;;;;;5052494;28;20021;-77
2022/07/16 03:50:27;;;;;;;5.28;3.38;;;7.60;99.90;;;;;;5052661;28;20063;-78
2022/07/16 03:52:53;;;;;;;4.18;3.45;;;7.60;99.90;;;;;;5051463;28;20022;-70
2022/07/16 03:55:19;;;;;;;4.25;3.75;;;7.60;99.90;;;;;;5052650;28;20473;-78
2022/07/16 03:57:44;;;;;;;4.28;3.88;;;7.70;99.90;;;;;;5051279;28;20062;-70
2022/07/16 04:00:12;;;;;;;5.50;4.30;;;7.80;99.90;;;;;;5049622;28;20500;-77
2022/07/16 04:02:38;;;;;;;7.63;4.20;;;7.90;99.90;;;;;;5051102;28;20073;-70
2022/07/16 04:05:04;;;;;;;4.30;4.00;;;8.00;99.90;;;;;;5051287;28;20029;-70
2022/07/16 04:07:30;;;;;;;6.32;4.30;;;8.10;99.90;;;;;;5050941;28;20041;-76
2022/07/16 04:09:56;;;;;;;8.35;4.50;;;8.20;99.90;;;;;;5051169;28;20024;-78
2022/07/16 04:12:23;;;;;;;7.82;4.80;;;8.40;99.90;;;;;;5051613;28;20017;-73
2022/07/16 04:14:52;;;;;;;7.18;4.55;;;8.40;99.90;;;;;;5050925;28;20138;-70
2022/07/16 04:17:17;;;;;;;5.93;4.20;;;8.50;99.90;;;;;;5050737;28;20502;-70
2022/07/16 04:19:43;;;;;;;7.05;4.20;;;8.70;99.90;;;;;;5052163;28;20044;-77
2022/07/16 04:22:09;;;;;;;5.45;3.90;;;8.70;99.90;;;;;;5051975;28;20086;-78
2022/07/16 04:24:35;;;;;;;6.15;4.15;;;8.80;99.90;;;;;;5051482;28;20474;-78
2022/07/16 04:27:00;;;;;;;5.05;4.43;;;8.90;99.90;;;;;;5051873;28;20129;-78
2022/07/16 04:29:26;;;;;;;6.28;3.80;;;8.90;99.90;;;;;;5052000;28;20017;-77
2022/07/16 04:31:52;;;;;;;4.40;3.97;;;9.00;99.90;;;;;;5051991;28;20398;-71
2022/07/16 04:34:17;;;;;;;7.20;4.63;;;9.10;99.90;;;;;;5051785;28;20029;-71
2022/07/16 04:36:44;;;;;;;6.65;4.22;;;9.10;99.90;;;;;;5051763;28;20027;-78
2022/07/16 04:39:10;;;;;;;11.25;4.63;;;9.20;99.90;;;;;;5051667;28;20382;-71
2022/07/16 04:41:36;;;;;;;7.88;4.05;;;9.30;99.90;;;;;;5051887;28;20082;-71
2022/07/16 04:44:02;;;;;;;6.05;4.20;;;9.30;99.90;;;;;;5051688;28;20382;-78
2022/07/16 04:46:27;;;;;;;8.02;4.70;;;9.30;99.90;;;;;;5051691;28;20052;-78
2022/07/16 04:48:53;;;;;;;8.55;4.57;;;9.40;99.90;;;;;;5051900;28;20466;-77
2022/07/16 04:51:19;;;;;;;9.25;4.35;;;9.50;99.90;;;;;;5051956;28;20374;-71
2022/07/16 04:53:44;;;;;;;6.30;4.78;;;9.60;99.90;;;;;;5051467;28;20025;-72
2022/07/16 04:56:10;;;;;;;8.00;4.55;;;9.70;99.90;;;;;;5050066;28;20126;-78
2022/07/16 04:58:36;;;;;;;6.25;4.40;;;9.80;99.90;;;;;;5050111;28;20043;-72
2022/07/16 05:01:01;;;;;;;7.68;4.97;;;9.80;99.90;;;;;;5051419;28;20467;-71
2022/07/16 05:03:27;;;;;;;9.32;6.03;;;9.90;99.90;;;;;;5051363;28;20037;-71
2022/07/16 05:05:53;;;;;;;8.70;5.20;;;10.00;99.90;;;;;;5050870;28;20036;-77
2022/07/16 05:08:18;;;;;;;14.48;5.50;;;10.10;99.90;;;;;;5051095;28;20040;-71
2022/07/16 05:10:44;;;;;;;8.85;5.03;;;10.10;99.90;;;;;;5051205;28;20435;-78
2022/07/16 05:13:10;;;;;;;9.38;5.25;;;10.30;99.90;;;;;;5051279;28;20097;-77
2022/07/16 05:15:37;;;;;;;10.82;4.90;;;10.40;99.90;;;;;;5051287;28;20123;-71
2022/07/16 05:18:03;;;;;;;6.95;4.78;;;10.50;99.90;;;;;;5051036;28;20044;-78
2022/07/16 05:20:29;;;;;;;8.10;4.88;;;10.60;99.90;;;;;;5051213;28;20017;-78
2022/07/16 05:22:56;;;;;;;12.70;5.50;;;10.70;99.90;;;;;;5051035;28;20025;-77
2022/07/16 05:25:22;;;;;;;10.80;6.05;;;10.90;99.90;;;;;;5050806;28;20017;-77
2022/07/16 05:27:48;;;;;;;7.97;4.90;;;11.00;99.90;;;;;;5050952;28;20080;-71
2022/07/16 05:30:14;;;;;;;10.40;5.85;;;11.20;99.90;;;;;;5050981;28;20021;-72
2022/07/16 05:32:41;;;;;;;9.35;6.05;;;11.40;99.90;;;;;;5049598;28;20052;-71
2022/07/16 05:35:09;;;;;;;16.80;6.50;;;11.60;99.90;;;;;;5048568;28;20013;-71
2022/07/16 05:37:35;;;;;;;11.13;6.50;;;11.80;99.90;;;;;;5050810;28;20526;-78
2022/07/16 05:40:01;;;;;;;19.75;8.90;;;12.10;99.90;;;;;;5050774;28;20022;-78
2022/07/16 05:42:27;;;;;;;18.58;9.07;;;12.40;99.90;;;;;;5050684;28;20480;-71
2022/07/16 05:44:52;;;;;;;23.63;10.23;;;12.50;99.90;;;;;;5050705;28;20029;-78
2022/07/16 05:47:18;;;;;;;26.10;10.07;;;12.60;99.90;;;;;;5049511;28;20025;-71
2022/07/16 05:49:44;;;;;;;23.92;10.57;;;12.70;99.90;;;;;;5050625;28;20045;-70
2022/07/16 05:52:09;;;;;;;24.25;11.20;;;12.90;99.90;;;;;;5050741;28;20029;-78
2022/07/16 05:54:35;;;;;;;22.90;9.32;;;13.10;99.90;;;;;;5050569;28;20070;-78
2022/07/16 05:57:01;;;;;;;17.70;9.70;;;13.30;99.90;;;;;;5049373;28;20029;-78
2022/07/16 05:59:27;;;;;;;19.48;8.60;;;13.50;99.90;;;;;;5050316;28;20044;-71
2022/07/16 06:01:52;;;;;;;21.65;10.23;;;13.80;99.90;;;;;;5050603;28;20028;-77
2022/07/16 06:04:18;;;;;;;16.45;8.70;;;14.00;99.90;;;;;;5050326;28;20021;-78
2022/07/16 06:06:44;;;;;;;22.73;10.93;;;14.20;99.90;;;;;;5049046;28;20113;-72
2022/07/16 06:09:09;;;;;;;19.60;9.35;;;14.40;99.90;;;;;;5050436;28;20030;-78
2022/07/16 06:11:35;;;;;;;18.73;9.27;;;14.50;99.90;;;;;;5049123;28;20359;-78
2022/07/16 06:14:01;;;;;;;18.13;8.85;;;14.60;99.90;;;;;;5050450;28;20028;-72
2022/07/16 06:16:27;;;;;;;19.48;9.85;;;14.60;99.90;;;;;;5050379;28;20029;-71
2022/07/16 06:18:53;;;;;;;19.00;9.80;;;14.60;98.90;;;;;;5050238;28;20044;-71
2022/07/16 06:21:18;;;;;;;29.13;11.07;;;14.60;97.00;;;;;;5048847;28;20017;-71
2022/07/16 06:23:44;;;;;;;14.63;8.68;;;14.80;99.90;;;;;;5049054;28;20591;-77
2022/07/16 06:26:10;;;;;;;15.25;8.45;;;15.10;99.90;;;;;;5050199;28;20032;-77
2022/07/16 06:28:35;;;;;;;14.90;8.15;;;15.30;96.00;;;;;;5050369;28;20025;-72
2022/07/16 06:31:01;;;;;;;14.40;8.45;;;15.50;90.90;;;;;;5050074;28;20032;-72
2022/07/16 06:33:27;;;;;;;14.02;7.60;;;15.60;90.00;;;;;;5050091;28;20490;-72
2022/07/16 06:35:52;;;;;;;13.38;7.25;;;15.60;87.80;;;;;;5048863;28;20029;-78
2022/07/16 06:38:18;;;;;;;14.02;6.65;;;15.60;84.10;;;;;;5048778;28;20037;-73
2022/07/16 06:40:44;;;;;;;12.60;6.82;;;15.90;83.10;;;;;;5049943;28;20049;-72
2022/07/16 06:43:11;;;;;;;13.27;7.10;;;16.20;82.70;;;;;;5048800;28;20436;-78
2022/07/16 06:45:37;;;;;;;15.18;8.25;;;16.40;79.10;;;;;;5049821;28;20021;-72
2022/07/16 06:48:03;;;;;;;15.77;7.40;;;16.50;75.60;;;;;;5053439;28;20073;-71
2022/07/16 06:50:29;;;;;;;18.63;8.27;;;16.70;76.80;;;;;;5051902;28;20033;-72
2022/07/16 06:52:54;;;;;;;19.85;8.40;;;16.80;76.10;;;;;;5092596;27;20029;-72
2022/07/16 06:55:20;;;;;;;16.92;7.90;;;16.70;74.00;;;;;;5158518;27;20022;-72
2022/07/16 06:57:46;;;;;;;17.25;8.52;;;16.80;75.40;;;;;;5158400;27;20039;-72
2022/07/16 07:00:12;;;;;;;11.27;6.93;;;17.10;74.50;;;;;;5158449;27;20023;-78
2022/07/16 07:02:38;;;;;;;15.23;6.30;;;17.20;72.70;;;;;;5158440;27;20387;-72
2022/07/16 07:05:05;;;;;;;9.68;6.50;;;17.40;72.90;;;;;;5104713;27;20029;-72
2022/07/16 07:07:31;;;;;;;12.07;5.65;;;17.40;69.90;;;;;;5094433;27;20046;-71
2022/07/16 07:09:56;;;;;;;11.85;5.60;;;17.50;69.90;;;;;;5109896;27;20134;-78
2022/07/16 07:12:22;;;;;;;9.88;5.68;;;17.70;68.90;;;;;;5053032;27;20058;-72
2022/07/16 07:14:48;;;;;;;8.60;5.05;;;17.90;68.10;;;;;;5105099;27;20049;-73
2022/07/16 07:17:13;;;;;;;6.63;4.75;;;18.00;65.60;;;;;;5098625;27;20019;-71
2022/07/16 07:19:39;;;;;;;6.03;3.15;;;18.00;66.40;;;;;;5107190;27;20025;-73
2022/07/16 07:22:05;;;;;;;6.25;2.80;;;18.00;61.20;;;;;;5103448;27;20033;-72
2022/07/16 07:24:30;;;;;;;2.75;2.47;;;18.10;60.30;;;;;;5093714;27;20438;-72
2022/07/16 07:26:56;;;;;;;3.35;2.63;;;18.20;58.30;;;;;;5080060;27;20026;-72
2022/07/16 07:29:22;;;;;;;5.97;3.40;;;18.20;58.80;;;;;;5098658;27;20605;-73
2022/07/16 07:31:47;;;;;;;6.95;3.20;;;18.50;60.50;;;;;;5099874;27;20424;-78
2022/07/16 07:34:13;;;;;;;9.52;2.83;;;18.70;60.10;;;;;;5120199;27;20027;-78
2022/07/16 07:36:39;;;;;;;5.93;2.50;;;18.70;60.40;;;;;;5099744;27;20020;-79
2022/07/16 07:39:05;;;;;;;4.85;1.92;;;18.80;57.60;;;;;;5089243;27;20037;-73
2022/07/16 07:41:30;;;;;;;5.22;2.45;;;18.70;56.50;;;;;;5052460;28;20036;-72
2022/07/16 07:43:56;;;;;;;4.88;2.70;;;18.90;57.70;;;;;;5062704;27;20032;-72
2022/07/16 07:46:22;;;;;;;5.22;2.45;;;18.90;57.50;;;;;;5112874;27;20015;-78
2022/07/16 07:48:47;;;;;;;3.42;2.47;;;18.80;55.70;;;;;;5119226;27;20097;-78
2022/07/16 07:51:13;;;;;;;6.47;2.78;;;19.00;57.20;;;;;;5130266;27;20387;-79
2022/07/16 07:53:39;;;;;;;4.55;2.50;;;19.20;57.90;;;;;;5106140;27;20043;-78
2022/07/16 07:56:05;;;;;;;4.28;2.58;;;19.30;58.60;;;;;;5096748;27;20024;-78
2022/07/16 07:58:31;;;;;;;5.93;3.45;;;19.30;56.70;;;;;;5105801;27;20528;-71
2022/07/16 08:00:56;;;;;;;6.53;2.97;;;19.40;58.60;;;;;;5118948;27;20011;-77
2022/07/16 08:03:23;;;;;;;9.63;3.35;;;19.40;57.20;;;;;;5120428;27;20022;-72
2022/07/16 08:05:48;;;;;;;11.40;4.20;;;19.40;55.90;;;;;;5144476;27;20031;-78
2022/07/16 08:08:14;;;;;;;8.30;4.00;;;19.30;56.20;;;;;;5052098;28;20021;-72
2022/07/16 08:10:40;;;;;;;8.95;4.90;;;19.50;58.40;;;;;;5051816;28;20100;-77
2022/07/16 08:13:06;;;;;;;11.25;4.22;;;19.70;57.90;;;;;;5052407;28;20056;-77
2022/07/16 08:15:32;;;;;;;10.57;3.33;;;19.70;56.40;;;;;;5051421;28;20035;-77
2022/07/16 08:17:58;;;;;;;6.05;2.78;;;19.90;55.70;;;;;;5049631;28;20032;-77
2022/07/16 08:20:24;;;;;;;7.05;3.33;;;20.00;54.40;;;;;;5050658;28;20059;-72
2022/07/16 08:22:49;;;;;;;8.00;3.58;;;20.00;53.90;;;;;;5051967;28;20029;-72
2022/07/16 08:28:00;;;;;;;8.57;2.70;;;19.90;53.50;;;;;;5051816;28;20082;-71
2022/07/16 08:30:26;;;;;;;10.00;3.38;;;19.70;54.10;;;;;;5049393;28;20521;-77
2022/07/16 08:32:53;;;;;;;13.65;4.28;;;19.50;54.10;;;;;;5051939;28;20060;-72
2022/07/16 08:35:18;;;;;;;8.70;3.00;;;19.60;53.90;;;;;;5051870;28;20031;-77
2022/07/16 08:37:46;;;;;;;4.75;2.65;;;19.70;52.90;;;;;;5050662;28;20033;-77
2022/07/16 08:40:15;;;;;;;9.00;3.22;;;19.70;54.40;;;;;;5050866;28;20071;-72
2022/07/16 08:42:41;;;;;;;9.82;3.47;;;19.90;54.50;;;;;;5051861;28;20033;-73
2022/07/16 08:45:08;;;;;;;5.45;2.80;;;20.00;53.10;;;;;;5051934;28;20366;-72
2022/07/16 08:47:35;;;;;;;6.15;2.67;;;20.00;52.70;;;;;;5051626;28;20025;-77
2022/07/16 08:50:04;;;;;;;5.18;2.72;;;19.90;53.00;;;;;;5051649;28;20065;-77
2022/07/16 08:52:30;;;;;;;8.32;2.60;;;19.70;52.60;;;;;;5051572;28;20033;-77
2022/07/16 08:54:57;;;;;;;9.60;3.38;;;20.10;52.90;;;;;;5051714;28;20020;-72
2022/07/16 08:57:24;;;;;;;8.38;3.33;;;20.20;52.70;;;;;;5051463;28;20397;-77
2022/07/16 08:59:52;;;;;;;7.72;3.63;;;20.40;51.90;;;;;;5050382;28;20101;-77
2022/07/16 09:02:18;;;;;;;7.95;2.75;;;20.70;51.50;;;;;;5051343;28;20053;-72
2022/07/16 09:04:44;;;;;;;7.22;3.42;;;20.30;50.50;;;;;;5051606;28;20070;-76
2022/07/16 09:07:15;;;;;;;7.88;2.90;;;19.90;51.00;;;;;;5051154;28;20112;-77
2022/07/16 09:09:41;;;;;;;7.97;2.67;;;19.80;51.00;;;;;;5051409;28;20025;-71
2022/07/16 09:12:07;;;;;;;5.97;2.63;;;19.90;51.90;;;;;;5051269;28;20017;-71
2022/07/16 09:14:33;;;;;;;8.35;3.03;;;20.10;53.60;;;;;;5051342;28;20104;-72
2022/07/16 09:17:00;;;;;;;4.28;2.30;;;20.30;51.50;;;;;;5051270;28;20025;-72
2022/07/16 09:19:28;;;;;;;4.05;2.60;;;19.90;50.50;;;;;;5049982;28;20037;-72
2022/07/16 09:22:10;;;;;;;8.15;2.67;;;19.50;51.60;;;;;;5051211;28;20032;-71
2022/07/16 09:24:48;;;;;;;6.93;2.63;;;19.60;52.30;;;;;;5049983;28;20074;-72
2022/07/16 09:27:15;;;;;;;5.22;2.65;;;19.80;52.60;;;;;;5049806;28;20023;-77
2022/07/16 09:29:48;;;;;;;7.18;2.40;;;19.80;51.70;;;;;;5049810;28;20026;-77
2022/07/16 09:32:36;;;;;;;3.63;1.77;;;20.00;50.70;;;;;;5051008;28;20032;-76
2022/07/16 09:35:11;;;;;;;5.15;1.42;;;20.30;50.70;;;;;;5051135;28;20112;-72
2022/07/16 09:38:00;;;;;;;9.18;1.83;;;20.50;50.60;;;;;;5050866;28;20028;-71
2022/07/16 09:40:43;;;;;;;5.13;1.55;;;20.50;49.40;;;;;;5051073;28;20081;-77
2022/07/16 09:43:12;;;;;;;3.83;1.40;;;20.70;49.30;;;;;;5050975;28;20051;-71
2022/07/16 09:45:57;;;;;;;3.60;1.67;;;20.40;48.60;;;;;;5050539;28;20690;-77
2022/07/16 09:48:27;;;;;;;6.07;1.85;;;20.60;48.80;;;;;;5049398;28;20370;-78
2022/07/16 09:50:55;;;;;;;5.25;1.90;;;20.70;48.50;;;;;;5049509;28;20112;-71
2022/07/16 09:53:23;;;;;;;3.08;1.40;;;21.00;49.00;;;;;;5050644;28;20147;-76
2022/07/16 09:56:01;;;;;;;5.60;1.52;;;21.30;49.50;;;;;;5049264;28;20033;-77
2022/07/16 09:58:27;;;;;;;6.80;1.70;;;21.00;48.00;;;;;;5050465;28;20143;-71
2022/07/16 10:00:53;;;;;;;7.95;2.15;;;21.00;48.10;;;;;;5049034;28;20048;-71
2022/07/16 10:03:19;;;;;;;3.75;1.80;;;21.00;47.20;;;;;;5047350;28;20021;-77
2022/07/16 10:05:45;;;;;;;3.47;1.70;;;20.90;48.10;;;;;;5050028;28;20040;-71
2022/07/16 10:08:11;;;;;;;3.17;1.95;;;21.10;48.50;;;;;;5048025;28;20025;-72
2022/07/16 10:10:36;;;;;;;4.90;1.95;;;21.20;48.40;;;;;;5050118;28;20039;-73
2022/07/16 10:13:02;;;;;;;7.00;1.60;;;21.40;48.00;;;;;;5050451;28;20022;-76
2022/07/16 10:15:28;;;;;;;5.20;2.03;;;21.70;49.20;;;;;;5048679;28;20108;-76
2022/07/16 10:17:54;;;;;;;3.55;1.50;;;21.90;48.40;;;;;;5050350;28;20029;-71
2022/07/16 10:20:20;;;;;;;3.65;1.70;;;22.00;48.30;;;;;;5048733;28;20017;-76
2022/07/16 10:22:50;;;;;;;6.53;2.28;;;22.10;47.20;;;;;;5049984;28;20025;-71
2022/07/16 10:25:20;;;;;;;3.13;2.40;;;22.30;46.80;;;;;;5050487;28;20025;-71
2022/07/16 10:27:46;;;;;;;5.57;1.98;;;22.30;45.70;;;;;;5048955;28;20021;-71
2022/07/16 10:30:14;;;;;;;8.05;2.65;;;22.40;46.00;;;;;;5050186;28;20021;-76
2022/07/16 10:32:59;;;;;;;3.55;1.88;;;22.20;46.60;;;;;;5049681;28;20021;-76
2022/07/16 10:35:34;;;;;;;2.17;1.35;;;22.20;46.50;;;;;;5049910;28;20026;-72
2022/07/16 10:38:07;;;;;;;4.55;1.33;;;21.90;45.50;;;;;;5050066;28;20043;-76
2022/07/16 10:40:34;;;;;;;5.82;1.45;;;21.90;45.00;;;;;;5050193;28;20042;-76
2022/07/16 10:43:29;;;;;;;2.42;1.38;;;21.90;45.00;;;;;;5048908;28;20070;-71
2022/07/16 10:45:58;;;;;;;3.97;1.20;;;21.60;44.30;;;;;;5037172;28;20033;-72
2022/07/16 10:48:26;;;;;;;2.08;1.40;;;21.50;44.90;;;;;;5050058;28;20028;-72
2022/07/16 10:51:16;;;;;;;3.35;1.25;;;21.40;45.70;;;;;;5050057;28;20052;-76
2022/07/16 10:54:02;;;;;;;3.22;1.10;;;21.70;46.70;;;;;;5050034;28;20193;-76
2022/07/16 10:56:56;;;;;;;3.55;2.08;;;22.10;45.90;;;;;;5049924;28;20025;-76
2022/07/16 10:59:25;;;;;;;3.22;1.25;;;22.30;44.50;;;;;;5047642;28;20514;-76
2022/07/16 11:01:54;;;;;;;2.15;1.10;;;22.30;44.40;;;;;;5049901;28;20025;-72
2022/07/16 11:04:33;;;;;;;2.10;1.00;;;22.40;44.30;;;;;;5049812;28;20382;-77
2022/07/16 11:07:00;;;;;;;2.25;0.93;;;22.40;45.20;;;;;;5049724;28;20060;-75
2022/07/16 11:09:31;;;;;;;2.45;1.35;;;22.30;43.90;;;;;;5048524;28;20027;-72
2022/07/16 11:12:15;;;;;;;1.42;1.27;;;22.30;42.90;;;;;;5049845;28;20024;-71
2022/07/16 11:14:44;;;;;;;3.38;1.35;;;22.40;43.60;;;;;;5049871;28;20032;-71
2022/07/16 11:17:10;;;;;;;4.13;1.42;;;22.50;44.20;;;;;;5048494;28;20025;-71
2022/07/16 11:19:42;;;;;;;1.90;1.23;;;22.60;43.50;;;;;;5049599;28;20051;-72
2022/07/16 11:22:09;;;;;;;2.08;1.00;;;22.70;43.40;;;;;;5049700;28;20025;-76
2022/07/16 11:24:34;;;;;;;3.00;1.08;;;23.00;44.50;;;;;;5049582;28;20386;-71
2022/07/16 11:27:01;;;;;;;1.55;0.88;;;23.10;43.00;;;;;;5048382;28;20028;-71
2022/07/16 11:29:28;;;;;;;1.48;1.23;;;23.40;44.60;;;;;;5048292;28;20033;-75
2022/07/16 11:31:56;;;;;;;6.43;1.10;;;23.40;43.00;;;;;;5049558;28;20027;-71
2022/07/16 11:34:22;;;;;;;5.30;1.10;;;22.90;42.70;;;;;;5051841;28;20512;-76
2022/07/16 11:36:52;;;;;;;2.65;1.25;;;22.50;41.60;;;;;;5052812;28;20036;-71
2022/07/16 11:39:24;;;;;;;5.22;1.75;;;22.50;43.50;;;;;;5052707;28;20051;-71
2022/07/16 11:41:53;;;;;;;3.17;1.60;;;22.30;43.60;;;;;;5052899;28;20031;-72
2022/07/16 11:44:20;;;;;;;5.40;1.65;;;22.30;44.60;;;;;;5052700;28;20363;-76
2022/07/16 11:46:54;;;;;;;3.97;1.45;;;22.00;44.50;;;;;;5052809;28;20017;-71
2022/07/16 11:49:39;;;;;;;1.15;1.00;;;22.40;45.80;;;;;;5052699;28;20021;-71
2022/07/16 11:52:20;;;;;;;1.88;1.38;;;22.70;45.80;;;;;;5052802;28;20029;-76
2022/07/16 11:54:47;;;;;;;1.95;1.20;;;22.90;44.70;;;;;;5052710;28;20021;-71
2022/07/16 11:57:14;;;;;;;3.03;1.30;;;23.10;45.60;;;;;;5052546;28;20075;-71
2022/07/16 11:59:49;;;;;;;3.70;1.65;;;23.20;45.90;;;;;;5052357;28;20397;-76
2022/07/16 12:02:25;;;;;;;2.20;1.10;;;22.90;44.20;;;;;;5052424;28;20100;-71
2022/07/16 12:04:54;;;;;;;2.65;1.40;;;22.80;44.70;;;;;;5052414;28;20049;-71
2022/07/16 12:07:27;;;;;;;3.00;1.27;;;22.40;43.30;;;;;;5052287;28;20041;-76
2022/07/16 12:09:58;;;;;;;1.33;1.10;;;22.30;43.60;;;;;;5051073;28;20432;-75
2022/07/16 12:12:30;;;;;;;5.40;1.10;;;22.30;43.50;;;;;;5051176;28;20032;-72
2022/07/16 12:14:58;;;;;;;3.90;1.48;;;22.20;44.30;;;;;;5052244;28;20259;-71
2022/07/16 12:17:28;;;;;;;2.55;1.23;;;22.00;45.00;;;;;;5052292;28;20052;-76
2022/07/16 12:20:05;;;;;;;2.33;1.20;;;21.80;44.90;;;;;;5052262;28;20550;-72
2022/07/16 12:22:43;;;;;;;2.90;1.30;;;22.00;45.40;;;;;;5051952;28;20025;-76
2022/07/16 12:25:35;;;;;;;2.22;1.20;;;21.80;45.80;;;;;;5039328;28;20026;-70
2022/07/16 12:28:16;;;;;;;3.38;1.55;;;21.90;46.40;;;;;;5030593;28;20057;-77
2022/07/16 12:30:45;;;;;;;3.03;1.20;;;22.00;47.50;;;;;;5031955;28;20055;-79
2022/07/16 12:33:21;;;;;;;2.17;1.25;;;21.80;47.40;;;;;;5031983;28;20055;-72
2022/07/16 12:35:53;;;;;;;1.90;1.00;;;22.10;47.50;;;;;;5059897;27;20022;-79
2022/07/16 12:41:25;;;;;;;1.30;1.20;;;22.50;45.60;;;;;;5074094;27;20609;-78
2022/07/16 12:43:53;;;;;;;2.33;1.13;;;22.80;45.80;;;;;;5114180;27;20026;-77
2022/07/16 12:46:21;;;;;;;1.48;0.80;;;22.80;44.10;;;;;;5088193;27;20021;-78
2022/07/16 12:49:03;;;;;;;2.13;0.85;;;23.00;43.90;;;;;;5111075;27;20037;-79
2022/07/16 12:51:31;;;;;;;2.75;0.85;;;23.00;43.40;;;;;;5113792;27;20418;-79
2022/07/16 12:53:59;;;;;;;1.77;1.05;;;22.70;42.80;;;;;;5135855;27;20213;-80
2022/07/16 12:59:11;;;;;;;3.88;1.60;;;22.90;45.20;;;;;;5133482;27;20456;-79
2022/07/16 13:01:37;;;;;;;3.22;1.30;;;23.00;44.20;;;;;;5151649;27;20449;-78
2022/07/16 13:04:04;;;;;;;4.32;1.20;;;23.00;43.90;;;;;;5109814;27;20114;-78
2022/07/16 13:06:31;;;;;;;4.07;1.20;;;23.20;43.00;;;;;;5124009;27;20046;-79